Terminal Aerodrome Forecast
Issued by NWS

Home | Current Version | Previous Version | Text Only | Print | Product List | Glossary Off
Versions: 1 2 3 4 5 6 7 8 9 10 11 12 13 14 15 16 17 18

242
FTUS43 KBIS 052320
TAFJMS
TAF
KJMS 052320Z 0600/0624 25006KT P6SM FEW200
     FM060700 20006KT P6SM BKN200
     FM061500 25014KT P6SM BKN120 WS020/28045KT
     FM062100 25018G26KT P6SM BKN200=

USA.gov is the U.S. government's official web portal to all federal, state and local government web resources and services.